Pagrindinis puslapis
METAR-TAF:

METAR-TAF

Oro uostai :

Oruras, Bolivija

platuma: 17-58S, ilguma: 067-04W, Aukštis: 3072 m

Dabartinis oras

Ataskaita buvo paskelbta 7 valandos ir 27 minutes, ne 18:00 UTC
Vėjas 3 kt iš Vakarų
Temperatūra 15°C
Drėgmė 21%
Slėgis 1035 hPa
Matomumas 10 km arba daugiau
Mažai debesys ne aukštis 2000 ft
Su prošvaistėmis ne aukštis 20000 ft

METAR: SLOR 161800Z 28003KT 9999 FEW020 BKN200 15/M07 Q1035

Laikas: 21:27 (01:27 UTC)

Prognozė

Ataskaita buvo paskelbta 15 valandos ir 12 minutes, ne 10:15 UTC
Prognozė galioja nuo 16 metu 12 UTC su 17 metu 12 UTC
Vėjas kt iš Šiaurės
Matomumas 10 km arba daugiau
Mažai debesys ne aukštis 1500 ft
Tapsmas
nuo 16 metu 14 UTC su 16 metu 16 UTC
Vėjas 10 kt iš Vakarų/Pietvakarių
Tapsmas
nuo 16 metu 23 UTC su 17 metu 01 UTC
Vėjas 5 kt iš Šiaurės Rytų

TAF: SLOR 161015Z 1612/1712 00000KT 9999 FEW015 TX16/1620Z TNM06/1711Z BECMG 1614/1616 24010KT BECMG 1623/1701 04005KT

Orai ataskaitas ir orų prognozės (METAR, TAF).

turimą stotys yra geltonos ir raudonos taškus žemėlapyje.

Perkelti pele per norėdami pamatyti stoties vardą.

Tada spustelėkite, norėdami matyti oro stebėjimo ir prognozės.

Norėdami pakeisti žemėlapį: spustelėkite ant žalios mygtukų su juodo kryžiaus žemyn,; žalią mygtuką su brūkšneliu, jei norite nutolinti; arba žalių rodyklių gretimoms žemėlapius.


METAR-TAF: